createdAt,value
2019-02-16T00:00:15.890Z,11.30
2019-02-16T00:04:22.614Z,10.97
2019-02-16T00:08:27.605Z,10.33
2019-02-16T00:12:33.857Z,9.23
2019-02-16T00:16:38.880Z,8.70
2019-02-16T00:20:43.904Z,10.33
2019-02-16T00:24:48.918Z,10.10
2019-02-16T00:28:53.911Z,11.70
2019-02-16T00:32:58.976Z,9.93
2019-02-16T00:37:04.124Z,8.90
2019-02-16T00:41:09.236Z,8.37
2019-02-16T00:45:14.304Z,8.77
2019-02-16T00:49:19.323Z,8.07
2019-02-16T00:53:24.356Z,8.27
2019-02-16T00:57:29.319Z,6.97
2019-02-16T01:01:34.360Z,7.03
2019-02-16T01:05:39.374Z,8.43
2019-02-16T01:09:44.361Z,9.20
2019-02-16T01:13:49.358Z,11.73
2019-02-16T01:17:54.385Z,11.77
2019-02-16T01:21:59.401Z,11.10
2019-02-16T01:26:04.412Z,12.00
2019-02-16T01:30:10.179Z,10.23
2019-02-16T01:34:15.204Z,10.40
2019-02-16T01:38:20.244Z,11.20
2019-02-16T01:42:25.267Z,10.63
2019-02-16T01:46:30.299Z,8.63
2019-02-16T01:50:36.956Z,9.67
2019-02-16T01:54:41.952Z,9.20
2019-02-16T01:58:47.034Z,7.97
2019-02-16T02:02:52.052Z,7.90
2019-02-16T02:06:57.088Z,6.80
2019-02-16T02:11:02.272Z,7.40
2019-02-16T02:15:09.660Z,6.40
2019-02-16T02:19:14.743Z,6.87
2019-02-16T02:23:19.791Z,8.23
2019-02-16T02:27:24.926Z,7.70
2019-02-16T02:31:29.953Z,7.23
2019-02-16T02:35:34.955Z,7.47
2019-02-16T02:39:39.953Z,6.53
2019-02-16T02:43:44.961Z,8.50
2019-02-16T02:47:49.965Z,7.47
2019-02-16T02:51:55.014Z,8.60
2019-02-16T02:56:00.035Z,8.07
2019-02-16T03:00:07.906Z,8.47
2019-02-16T03:04:12.906Z,7.93
2019-02-16T03:08:17.928Z,9.40
2019-02-16T03:12:22.977Z,9.23
2019-02-16T03:16:27.979Z,8.93
2019-02-16T03:20:33.041Z,8.50
2019-02-16T03:24:39.123Z,8.00
2019-02-16T03:28:47.257Z,8.73
2019-02-16T03:33:10.677Z,7.83
2019-02-16T03:37:45.541Z,8.10
2019-02-16T03:41:50.547Z,7.60
2019-02-16T03:45:55.536Z,7.87
2019-02-16T03:50:00.544Z,7.17
2019-02-16T03:54:05.559Z,8.23
2019-02-16T03:58:10.594Z,7.43
2019-02-16T04:02:15.687Z,7.50
2019-02-16T04:06:20.656Z,7.47
2019-02-16T04:10:25.672Z,7.60
2019-02-16T04:14:30.692Z,6.40
2019-02-16T04:18:35.705Z,6.63
2019-02-16T04:22:41.779Z,6.17
2019-02-16T04:26:46.775Z,5.70
2019-02-16T04:30:51.791Z,6.03
2019-02-16T04:34:57.829Z,6.03
2019-02-16T04:39:04.414Z,6.80
2019-02-16T04:43:09.707Z,6.80
2019-02-16T04:47:16.807Z,6.30
2019-02-16T04:51:21.746Z,6.57
2019-02-16T04:55:26.771Z,6.70
2019-02-16T04:59:31.848Z,6.63
2019-02-16T05:03:36.795Z,7.57
2019-02-16T05:07:41.788Z,6.20
2019-02-16T05:11:46.809Z,7.50
2019-02-16T05:15:51.824Z,7.30
2019-02-16T05:19:56.824Z,7.30
2019-02-16T05:24:01.829Z,6.63
2019-02-16T05:28:06.816Z,6.40
2019-02-16T05:32:11.847Z,6.03
2019-02-16T05:36:16.899Z,5.83
2019-02-16T05:40:21.912Z,6.20
2019-02-16T05:44:26.924Z,6.13
2019-02-16T05:48:32.096Z,5.53
2019-02-16T05:52:37.121Z,5.60
2019-02-16T05:56:42.140Z,6.60
2019-02-16T06:00:47.140Z,7.73
2019-02-16T06:04:52.147Z,8.07
2019-02-16T06:08:57.185Z,7.27
2019-02-16T06:13:02.190Z,7.50
2019-02-16T06:17:07.279Z,9.57
2019-02-16T06:21:12.306Z,7.80
2019-02-16T06:25:17.358Z,8.90
2019-02-16T06:29:22.336Z,8.87
2019-02-16T06:33:27.419Z,8.00
2019-02-16T06:37:32.472Z,10.20
2019-02-16T06:41:37.512Z,7.03
2019-02-16T06:45:42.676Z,6.43
2019-02-16T06:49:47.689Z,6.97
2019-02-16T06:53:52.670Z,7.27
2019-02-16T06:57:57.691Z,7.20
2019-02-16T07:02:02.728Z,7.67
2019-02-16T07:06:07.816Z,6.60
2019-02-16T07:10:13.191Z,6.10
2019-02-16T07:14:18.500Z,7.43
2019-02-16T07:18:25.493Z,4.10
2019-02-16T07:22:30.783Z,3.63
2019-02-16T07:26:36.248Z,4.70
2019-02-16T07:30:41.543Z,4.27
2019-02-16T07:34:46.836Z,4.03
2019-02-16T07:38:52.132Z,4.47
2019-02-16T07:42:57.488Z,4.47
2019-02-16T07:47:07.422Z,4.47
2019-02-16T07:51:14.345Z,4.00
2019-02-16T07:55:21.256Z,4.70
2019-02-16T07:59:40.596Z,4.03
2019-02-16T08:03:53.511Z,4.10
2019-02-16T08:08:00.436Z,3.83
2019-02-16T08:12:07.419Z,3.50
2019-02-16T08:16:23.183Z,3.77
2019-02-16T08:20:36.042Z,3.77
2019-02-16T08:24:54.818Z,3.53
2019-02-16T08:29:04.920Z,3.67
2019-02-16T08:33:14.546Z,7.23
2019-02-16T08:37:21.504Z,7.67
2019-02-16T08:41:46.697Z,3.40
2019-02-16T08:45:53.601Z,4.80
2019-02-16T08:50:00.535Z,3.50
2019-02-16T08:54:07.457Z,3.23
2019-02-16T08:58:21.278Z,4.77
2019-02-16T09:02:43.650Z,4.10
2019-02-16T09:06:50.509Z,3.50
2019-02-16T09:11:00.149Z,4.07
2019-02-16T09:15:11.764Z,3.97
2019-02-16T09:19:30.611Z,3.70
2019-02-16T09:23:40.678Z,7.43
2019-02-16T09:27:59.704Z,3.87
2019-02-16T09:32:21.689Z,3.60
2019-02-16T09:36:31.391Z,3.47
2019-02-16T09:40:50.131Z,3.33
2019-02-16T09:45:02.778Z,3.40
2019-02-16T09:49:20.719Z,3.40
2019-02-16T09:53:27.879Z,3.50
2019-02-16T09:57:51.080Z,3.40
2019-02-16T10:01:58.002Z,3.10
2019-02-16T10:06:07.755Z,2.90
2019-02-16T10:10:14.745Z,3.03
2019-02-16T10:14:24.174Z,3.47
2019-02-16T10:18:49.496Z,2.90
2019-02-16T10:23:14.548Z,2.90
2019-02-16T10:27:21.475Z,2.70
2019-02-16T10:31:30.869Z,2.80
2019-02-16T10:35:40.863Z,2.90
2019-02-16T10:39:47.791Z,2.90
2019-02-16T10:43:54.709Z,2.70
2019-02-16T10:48:13.653Z,3.50
2019-02-16T10:52:20.536Z,2.63
2019-02-16T10:56:42.547Z,2.23
2019-02-16T11:00:58.481Z,2.17
2019-02-16T11:05:18.173Z,2.10
2019-02-16T11:09:27.787Z,2.40
2019-02-16T11:13:46.844Z,2.57
2019-02-16T11:18:10.270Z,2.03
2019-02-16T11:22:19.839Z,2.10
2019-02-16T11:26:43.555Z,2.20
2019-02-16T11:31:08.244Z,2.27
2019-02-16T11:35:27.353Z,2.53
2019-02-16T11:39:34.281Z,2.67
2019-02-16T11:43:41.228Z,2.53
2019-02-16T11:47:48.147Z,1.97
2019-02-16T11:52:10.048Z,2.00
2019-02-16T11:56:16.964Z,2.27
2019-02-16T12:00:33.106Z,1.70
2019-02-16T12:04:48.778Z,2.03
2019-02-16T12:09:01.578Z,1.50
2019-02-16T12:13:22.204Z,1.83
2019-02-16T12:17:45.371Z,1.90
2019-02-16T12:21:58.048Z,1.57
2019-02-16T12:26:10.969Z,1.83
2019-02-16T12:30:34.256Z,1.60
2019-02-16T12:34:41.198Z,2.07
2019-02-16T12:38:48.127Z,2.13
2019-02-16T12:42:55.052Z,1.20
2019-02-16T12:47:02.024Z,2.20
2019-02-16T12:51:17.987Z,1.80
2019-02-16T12:55:41.545Z,1.83
2019-02-16T12:59:57.656Z,2.10
2019-02-16T13:04:10.310Z,2.03
2019-02-16T13:08:29.219Z,2.23
2019-02-16T13:12:36.140Z,1.97
2019-02-16T13:16:46.150Z,2.20
2019-02-16T13:21:09.307Z,2.07
2019-02-16T13:25:24.435Z,2.97
2019-02-16T13:29:27.610Z,2.97
2019-02-16T13:33:34.602Z,3.07
2019-02-16T13:37:41.515Z,3.10
2019-02-16T13:41:51.123Z,3.03
2019-02-16T13:46:10.095Z,3.67
2019-02-16T13:50:17.014Z,2.73
2019-02-16T13:54:35.895Z,3.77
2019-02-16T13:58:42.837Z,2.30
2019-02-16T14:02:58.556Z,3.00
2019-02-16T14:07:05.491Z,4.17
2019-02-16T14:11:12.448Z,3.80
2019-02-16T14:15:19.375Z,3.40
2019-02-16T14:19:24.671Z,3.77
2019-02-16T14:23:29.931Z,4.23
2019-02-16T14:27:35.265Z,3.73
2019-02-16T14:31:40.572Z,5.20
2019-02-16T14:35:45.860Z,3.90
2019-02-16T14:39:51.188Z,4.70
2019-02-16T14:43:56.464Z,4.80
2019-02-16T14:48:01.747Z,6.20
2019-02-16T14:52:07.064Z,5.17
2019-02-16T14:56:12.403Z,7.60
2019-02-16T15:00:17.711Z,5.97
2019-02-16T15:04:23.003Z,6.83
2019-02-16T15:08:28.310Z,5.97
2019-02-16T15:12:33.643Z,6.13
2019-02-16T15:16:38.911Z,6.37
2019-02-16T15:20:44.184Z,5.13
2019-02-16T15:24:49.486Z,5.63
2019-02-16T15:28:55.743Z,6.23
2019-02-16T15:33:01.030Z,5.10
2019-02-16T15:37:06.328Z,6.00
2019-02-16T15:41:11.647Z,6.43
2019-02-16T15:45:16.911Z,5.20
2019-02-16T15:49:22.258Z,4.43
2019-02-16T15:53:27.524Z,5.07
2019-02-16T15:57:32.811Z,5.27
2019-02-16T16:01:38.186Z,5.67
2019-02-16T16:05:43.506Z,6.60
2019-02-16T16:10:02.476Z,5.73
2019-02-16T16:14:16.572Z,4.63
2019-02-16T16:18:25.939Z,5.83
2019-02-16T16:22:32.931Z,5.30
2019-02-16T16:26:39.887Z,5.03
2019-02-16T16:30:58.827Z,6.07
2019-02-16T16:35:09.259Z,5.50
2019-02-16T16:39:18.955Z,6.40
2019-02-16T16:43:35.182Z,6.83
2019-02-16T16:47:58.396Z,12.90
2019-02-16T16:52:09.213Z,13.60
2019-02-16T16:56:28.470Z,9.30
2019-02-16T17:00:31.406Z,12.37
2019-02-16T17:04:38.893Z,7.90
2019-02-16T17:08:50.036Z,9.20
2019-02-16T17:13:15.550Z,11.83
2019-02-16T17:17:23.214Z,13.30
2019-02-16T17:21:46.911Z,13.03
2019-02-16T17:25:54.764Z,10.90
2019-02-16T17:30:17.817Z,11.60
2019-02-16T17:34:39.742Z,9.90
2019-02-16T17:38:47.152Z,11.57
2019-02-16T17:43:09.533Z,20.07
2019-02-16T17:47:34.762Z,9.83
2019-02-16T17:52:01.399Z,11.27
2019-02-16T17:56:11.172Z,10.80
2019-02-16T18:00:18.040Z,10.37
2019-02-16T18:04:30.751Z,15.67
2019-02-16T18:08:53.920Z,14.53
2019-02-16T18:13:00.559Z,10.27
2019-02-16T18:17:10.455Z,12.18
2019-02-16T18:21:26.221Z,10.60
2019-02-16T18:25:33.573Z,10.73
2019-02-16T18:29:42.701Z,10.03
2019-02-16T18:33:55.829Z,10.00
2019-02-16T18:38:05.809Z,11.20
2019-02-16T18:42:27.536Z,12.10
2019-02-16T18:47:00.107Z,12.80
2019-02-16T18:51:09.768Z,13.23
2019-02-16T18:55:16.431Z,11.80
2019-02-16T18:59:23.062Z,13.47
2019-02-16T19:03:52.949Z,11.57
2019-02-16T19:08:02.755Z,12.27
2019-02-16T19:12:24.851Z,13.00
2019-02-16T19:16:43.761Z,11.00
2019-02-16T19:21:02.384Z,11.73
2019-02-16T19:25:27.352Z,11.90
2019-02-16T19:29:42.976Z,12.60
2019-02-16T19:34:01.163Z,11.73
2019-02-16T19:38:13.762Z,11.53
2019-02-16T19:42:23.554Z,10.63
2019-02-16T19:46:42.184Z,10.97
2019-02-16T19:50:54.621Z,11.97
2019-02-16T19:55:17.547Z,12.00
2019-02-16T19:59:24.197Z,13.17
2019-02-16T20:03:33.795Z,11.77
2019-02-16T20:07:49.568Z,10.57
2019-02-16T20:11:59.147Z,10.80
2019-02-16T20:16:08.528Z,11.27
2019-02-16T20:20:20.922Z,10.13
2019-02-16T20:24:33.331Z,11.67
2019-02-16T20:28:49.166Z,12.77
2019-02-16T20:32:58.548Z,12.57
2019-02-16T20:37:05.201Z,13.23
2019-02-16T20:41:21.234Z,12.90
2019-02-16T20:45:27.896Z,13.27
2019-02-16T20:49:37.576Z,13.60
2019-02-16T20:53:48.797Z,10.67
2019-02-16T20:57:55.672Z,10.90
2019-02-16T21:02:02.328Z,10.53
2019-02-16T21:06:19.301Z,11.57
2019-02-16T21:10:28.677Z,12.93
2019-02-16T21:14:47.232Z,11.47
2019-02-16T21:18:56.494Z,12.17
2019-02-16T21:23:03.202Z,12.50
2019-02-16T21:27:12.607Z,13.43
2019-02-16T21:31:25.280Z,15.40
2019-02-16T21:35:47.052Z,14.67
2019-02-16T21:39:54.234Z,15.37
2019-02-16T21:44:09.741Z,14.70
2019-02-16T21:48:32.597Z,14.33
2019-02-16T21:52:39.245Z,14.97
2019-02-16T21:56:54.891Z,15.67
2019-02-16T22:01:11.074Z,15.20
2019-02-16T22:05:23.683Z,17.43
2019-02-16T22:09:33.156Z,18.63
2019-02-16T22:13:38.425Z,18.67
2019-02-16T22:17:43.428Z,19.83
2019-02-16T22:21:48.599Z,19.53
2019-02-16T22:25:53.584Z,17.63
2019-02-16T22:29:58.677Z,16.63
2019-02-16T22:34:03.723Z,16.53
2019-02-16T22:38:08.752Z,16.27
2019-02-16T22:42:13.776Z,16.03
2019-02-16T22:46:18.783Z,16.13
2019-02-16T22:50:23.795Z,16.17
2019-02-16T22:54:28.804Z,17.10
2019-02-16T22:58:34.612Z,14.87
2019-02-16T23:02:39.762Z,13.10
2019-02-16T23:06:45.139Z,12.87
2019-02-16T23:10:50.247Z,14.93
2019-02-16T23:14:55.273Z,14.27
2019-02-16T23:19:00.275Z,14.23
2019-02-16T23:23:05.432Z,13.70
2019-02-16T23:27:10.439Z,15.83
2019-02-16T23:31:15.476Z,14.37
2019-02-16T23:35:20.488Z,13.23
2019-02-16T23:39:26.571Z,15.10
2019-02-16T23:43:31.600Z,13.83
2019-02-16T23:47:36.676Z,13.53
2019-02-16T23:51:41.683Z,13.50
2019-02-16T23:55:46.727Z,12.33
2019-02-16T23:59:51.700Z,13.07
